Página principal
METAR-TAF:

METAR-TAF

Aeroportos :

Duchambe, Tadjiquistão

latitude: 38-33N, longitude: 068-47E, altura: 803 m

Observação actual do tempo

O boletim foi feito há 38 minutos, às 01:00 UTC
Vento 10 kt de oeste
Temperatura 12°C
Humidade 67%
Pressão 1021 hPa
Visibilidade: 1400 m
bruma

METAR: UTDD 180100Z 27005MPS 1500 1400W HZ NSC 12/06 Q1021 R09/D NOSIG RMK QFE697/0930

Hora: 06:38 (01:38 UTC)

Previsão

O boletim foi feito há 1 hora e 38 minutos, às 00:00 UTC
Previsão válida de 18 às 01 UTC a 18 às 13 UTC
Vento 10 kt de oeste
Visibilidade: 1500 m
Nuvens fragmentadasa uma altura de 300 ft
Encobertoa uma altura de 800 ft
bruma
Temporariamente
de 18 às 01 UTC a 18 às 13 UTC
Vento 16 kt de oeste com rajadas de 25 kt

TAF: UTDD 180000Z 1801/1813 27005MPS 1500 HZ BKN003 OVC008 TEMPO 1801/1813 28008G13MPS

Observações e previsões do tempo de mais de 4000 aeroportos (mensagens METAR e TAF).

As estações disponíveis são os pontos amarelos e vermelhos sobre o mapa.

Mova o rato sobre o mapa para ver o nome da estação.

Depois clique no ponto para visualizar as observações e previsões meteorológicas.

Para alterar o mapa : clique nos botões verdes com uma cruz preta para aumentar o zoom; no botão verde com uma pitada de zoom; ou nas setas verdes para mapas adjacentes.


METAR-TAF: